Date,TemperatureHighF,TemperatureAvgF,TemperatureLowF,DewpointHighF,DewpointAvgF,DewpointLowF,HumidityHigh,HumidityAvg,HumidityLow,PressureMaxIn,PressureMinIn,WindSpeedMaxMPH,WindSpeedAvgMPH,GustSpeedMaxMPH,PrecipitationSumIn
2014-1-1,46,36,30,28,24,18,73,62,45,30.69,30.03,14,4,16,0.00
2014-1-2,34,21,6,29,13,-5,90,72,55,30.50,29.98,21,1,21,0.00
2014-1-3,27,12,-4,12,-1,-13,72,56,41,30.72,30.24,16,3,16,0.00
2014-1-4,42,30,17,21,12,3,58,46,34,30.30,30.01,32,8,32,0.17
2014-1-5,38,30,7,31,24,-1,91,78,47,30.14,29.57,14,1,14,0.02
2014-1-6,7,-7,-12,-1,-20,-26,69,52,43,30.71,30.09,1,0,1,0.00
2014-1-7,12,0,-12,-3,-14,-26,63,50,41,30.88,30.36,0,0,0,0.01
2014-1-8,31,20,7,17,9,-3,78,63,52,30.77,30.47,0,0,0,0.00
2014-1-9,36,25,13,30,18,6,89,75,58,30.88,30.40,2,0,3,0.02
2014-1-10,46,39,32,45,36,30,99,91,78,30.48,29.75,13,2,13,2.71
2014-1-11,48,40,33,47,37,29,99,89,76,30.26,29.59,30,9,30,0.19
2014-1-12,52,40,31,32,28,24,86,65,36,30.25,29.74,22,6,22,0.00
2014-1-13,52,48,37,43,36,27,84,63,42,30.00,29.77,29,10,29,0.00
2014-1-14,49,34,26,34,25,15,92,71,46,30.02,29.72,28,7,28,0.00
2014-1-15,30,24,16,17,11,4,73,59,45,30.28,27.17,32,8,32,0.00
2014-1-16,34,26,16,25,17,6,82,67,55,30.30,29.85,20,6,20,0.00
2014-1-17,32,18,13,28,7,-7,87,60,35,30.46,29.87,28,10,28,0.00
2014-1-18,31,22,13,28,12,4,89,66,43,30.37,29.76,13,5,17,0.00
2014-1-19,37,29,18,28,18,11,89,64,47,30.11,29.79,23,10,23,0.05
2014-1-20,47,37,31,29,25,21,76,61,44,30.29,29.76,21,5,21,0.02
2014-1-21,33,17,2,26,2,-14,85,55,22,30.64,29.84,34,6,34,0.02
2014-1-22,18,9,-2,12,-2,-13,75,59,47,30.50,30.12,38,5,38,0.00
2014-1-23,12,4,-2,1,-13,-19,64,44,28,30.78,30.32,21,8,21,0.00
2014-1-24,23,10,-5,9,-9,-17,60,42,25,31.00,29.89,44,8,44,0.00
2014-1-25,37,24,13,24,6,-13,84,49,23,30.08,29.67,50,14,50,0.05
2014-1-26,48,31,12,30,10,-12,66,42,28,30.09,29.60,18,5,18,0.00
2014-1-27,35,11,0,25,-10,-25,79,38,27,30.71,29.87,35,13,35,0.00
2014-1-28,17,5,-6,-12,-18,-25,48,33,22,30.95,30.40,18,4,18,0.00
2014-1-29,29,15,4,0,-9,-13,45,34,23,30.81,30.33,29,8,29,0.00
2014-1-30,38,26,15,5,-3,-9,35,27,21,30.67,29.94,37,10,37,0.00
2014-1-31,43,36,33,24,10,0,66,35,22,30.49,30.08,20,4,20,0.00